createdAt,value
2022-12-27T00:01:38.586Z,11.50
2022-12-27T00:03:44.814Z,11.49
2022-12-27T00:05:52.819Z,11.49
2022-12-27T00:07:58.915Z,11.51
2022-12-27T00:10:05.379Z,11.51
2022-12-27T00:12:11.457Z,11.52
2022-12-27T00:14:17.105Z,11.53
2022-12-27T00:16:24.321Z,11.50
2022-12-27T00:18:29.682Z,11.50
2022-12-27T00:20:35.231Z,11.48
2022-12-27T00:22:43.692Z,11.45
2022-12-27T00:24:49.561Z,11.44
2022-12-27T00:26:55.053Z,11.43
2022-12-27T00:29:01.523Z,11.44
2022-12-27T00:31:08.524Z,11.42
2022-12-27T00:33:13.815Z,11.41
2022-12-27T00:35:19.079Z,11.40
2022-12-27T00:37:24.431Z,11.40
2022-12-27T00:39:32.423Z,11.38
2022-12-27T00:41:37.805Z,11.39
2022-12-27T00:43:43.431Z,11.37
2022-12-27T00:45:49.393Z,11.34
2022-12-27T00:47:54.785Z,11.33
2022-12-27T00:50:00.037Z,11.33
2022-12-27T00:52:05.340Z,11.34
2022-12-27T00:54:10.643Z,11.32
2022-12-27T00:56:22.215Z,11.31
2022-12-27T00:58:28.274Z,11.32
2022-12-27T01:00:34.208Z,11.32
2022-12-27T01:02:40.768Z,11.30
2022-12-27T01:04:46.429Z,11.30
2022-12-27T01:06:51.856Z,11.29
2022-12-27T01:08:57.425Z,11.25
2022-12-27T01:11:02.957Z,11.22
2022-12-27T01:13:11.977Z,11.20
2022-12-27T01:15:17.447Z,11.15
2022-12-27T01:17:22.740Z,11.11
2022-12-27T01:19:28.167Z,11.10
2022-12-27T01:21:33.566Z,11.08
2022-12-27T01:23:39.442Z,11.07
2022-12-27T01:25:44.866Z,11.07
2022-12-27T01:27:50.051Z,11.07
2022-12-27T01:29:57.873Z,11.05
2022-12-27T01:32:03.355Z,11.02
2022-12-27T01:34:08.914Z,10.99
2022-12-27T01:36:17.878Z,10.97
2022-12-27T01:38:23.188Z,10.96
2022-12-27T01:40:28.974Z,10.96
2022-12-27T01:42:46.582Z,10.93
2022-12-27T01:45:00.958Z,10.88
2022-12-27T01:47:08.682Z,10.83
2022-12-27T01:49:15.339Z,10.79
2022-12-27T01:51:21.985Z,10.74
2022-12-27T01:53:32.647Z,10.69
2022-12-27T01:55:45.975Z,10.61
2022-12-27T01:57:53.888Z,10.59
2022-12-27T02:00:02.364Z,10.54
2022-12-27T02:02:11.188Z,10.49
2022-12-27T02:04:23.649Z,10.45
2022-12-27T02:06:32.138Z,10.41
2022-12-27T02:08:50.290Z,10.38
2022-12-27T02:10:57.763Z,10.37
2022-12-27T02:13:04.125Z,10.35
2022-12-27T02:15:13.270Z,10.35
2022-12-27T02:17:23.195Z,10.34
2022-12-27T02:19:44.292Z,10.36
2022-12-27T02:22:55.752Z,10.34
2022-12-27T02:25:30.229Z,10.31
2022-12-27T02:28:08.803Z,10.30
2022-12-27T02:30:17.196Z,10.30
2022-12-27T02:32:33.342Z,10.32
2022-12-27T02:34:48.274Z,10.33
2022-12-27T02:36:59.221Z,10.31
2022-12-27T02:39:06.718Z,10.29
2022-12-27T02:41:27.981Z,10.26
2022-12-27T02:43:46.537Z,10.23
2022-12-27T02:46:21.685Z,10.23
2022-12-27T02:48:39.956Z,10.23
2022-12-27T02:51:16.224Z,10.19
2022-12-27T02:53:35.346Z,10.22
2022-12-27T02:56:22.595Z,10.23
2022-12-27T02:58:39.023Z,10.23
2022-12-27T03:01:11.370Z,10.26
2022-12-27T03:03:57.344Z,10.28
2022-12-27T03:06:39.979Z,10.29
2022-12-27T03:08:55.128Z,10.32
2022-12-27T03:11:17.668Z,10.34
2022-12-27T03:13:47.999Z,10.36
2022-12-27T03:16:18.656Z,10.36
2022-12-27T03:18:52.094Z,10.34
2022-12-27T03:21:13.543Z,10.32
2022-12-27T03:23:32.945Z,10.29
2022-12-27T03:25:41.773Z,10.27
2022-12-27T03:28:11.843Z,10.26
2022-12-27T03:30:30.279Z,10.23
2022-12-27T03:33:02.927Z,10.19
2022-12-27T03:35:16.665Z,10.13
2022-12-27T03:37:40.723Z,10.11
2022-12-27T03:39:50.223Z,10.07
2022-12-27T03:42:18.409Z,10.05
2022-12-27T03:44:29.941Z,10.02
2022-12-27T03:46:35.554Z,10.00
2022-12-27T03:48:59.629Z,9.98
2022-12-27T03:51:09.103Z,9.97
2022-12-27T03:53:20.974Z,9.93
2022-12-27T03:55:33.177Z,9.89
2022-12-27T03:57:39.482Z,9.84
2022-12-27T03:59:45.515Z,9.80
2022-12-27T04:01:51.104Z,9.77
2022-12-27T04:03:59.503Z,9.77
2022-12-27T04:06:04.739Z,9.77
2022-12-27T04:08:22.407Z,9.74
2022-12-27T04:10:40.285Z,9.72
2022-12-27T04:12:58.206Z,9.69
2022-12-27T04:15:15.874Z,9.65
2022-12-27T04:17:33.677Z,9.59
2022-12-27T04:19:55.779Z,9.53
2022-12-27T04:22:13.492Z,9.51
2022-12-27T04:24:31.192Z,9.47
2022-12-27T04:26:48.933Z,9.39
2022-12-27T04:29:06.591Z,9.35
2022-12-27T04:31:24.454Z,9.31
2022-12-27T04:33:42.183Z,9.31
2022-12-27T04:35:50.201Z,9.28
2022-12-27T04:37:55.476Z,9.25
2022-12-27T04:40:13.015Z,9.25
2022-12-27T04:42:30.592Z,9.25
2022-12-27T04:44:48.343Z,9.22
2022-12-27T04:47:06.190Z,9.19
2022-12-27T04:49:30.103Z,9.14
2022-12-27T04:51:50.441Z,9.11
2022-12-27T04:54:08.177Z,9.07
2022-12-27T04:56:13.375Z,9.02
2022-12-27T04:58:18.834Z,8.99
2022-12-27T05:00:39.735Z,8.98
2022-12-27T05:02:42.503Z,8.97
2022-12-27T05:04:50.637Z,8.95
2022-12-27T05:07:19.574Z,8.94
2022-12-27T05:09:37.420Z,8.91
2022-12-27T05:11:55.097Z,8.89
2022-12-27T05:14:03.556Z,8.86
2022-12-27T05:16:09.909Z,8.85
2022-12-27T05:18:15.364Z,8.84
2022-12-27T05:20:20.793Z,8.84
2022-12-27T05:22:41.302Z,8.82
2022-12-27T05:24:58.803Z,8.80
2022-12-27T05:27:04.050Z,8.79
2022-12-27T05:29:11.207Z,8.77
2022-12-27T05:31:16.995Z,8.75
2022-12-27T05:33:22.513Z,8.73
2022-12-27T05:35:27.864Z,8.69
2022-12-27T05:37:35.682Z,8.64
2022-12-27T05:39:41.112Z,8.61
2022-12-27T05:41:46.374Z,8.57
2022-12-27T05:43:52.050Z,8.53
2022-12-27T05:45:58.752Z,8.50
2022-12-27T05:48:04.204Z,8.48
2022-12-27T05:50:10.913Z,8.45
2022-12-27T05:52:16.191Z,8.44
2022-12-27T05:54:23.923Z,8.42
2022-12-27T05:56:29.187Z,8.38
2022-12-27T05:58:35.677Z,8.34
2022-12-27T06:00:40.982Z,8.30
2022-12-27T06:02:46.412Z,8.27
2022-12-27T06:04:51.876Z,8.23
2022-12-27T06:06:57.068Z,8.19
2022-12-27T06:09:02.261Z,8.16
2022-12-27T06:11:14.281Z,8.12
2022-12-27T06:13:19.666Z,8.11
2022-12-27T06:15:24.983Z,8.10
2022-12-27T06:17:30.357Z,8.08
2022-12-27T06:19:35.866Z,8.06
2022-12-27T06:21:41.190Z,8.02
2022-12-27T06:23:48.660Z,7.99
2022-12-27T06:25:53.954Z,7.95
2022-12-27T06:28:02.206Z,7.93
2022-12-27T06:30:12.221Z,7.89
2022-12-27T06:32:17.893Z,7.86
2022-12-27T06:34:23.511Z,7.81
2022-12-27T06:36:30.403Z,7.80
2022-12-27T06:38:35.883Z,7.77
2022-12-27T06:40:41.300Z,7.75
2022-12-27T06:42:46.483Z,7.71
2022-12-27T06:44:54.342Z,7.70
2022-12-27T06:46:59.901Z,7.70
2022-12-27T06:49:05.419Z,7.66
2022-12-27T06:51:14.830Z,7.65
2022-12-27T06:53:20.043Z,7.64
2022-12-27T06:55:25.381Z,7.63
2022-12-27T06:57:30.601Z,7.62
2022-12-27T06:59:37.019Z,7.61
2022-12-27T07:01:45.606Z,7.59
2022-12-27T07:03:53.415Z,7.58
2022-12-27T07:05:58.632Z,7.57
2022-12-27T07:08:03.883Z,7.56
2022-12-27T07:10:10.777Z,7.53
2022-12-27T07:12:16.031Z,7.51
2022-12-27T07:14:21.482Z,7.51
2022-12-27T07:16:31.460Z,7.48
2022-12-27T07:18:39.632Z,7.46
2022-12-27T07:22:59.107Z,7.40
2022-12-27T07:25:05.044Z,7.32
2022-12-27T07:27:11.493Z,7.38
2022-12-27T07:29:17.463Z,7.37
2022-12-27T07:31:26.661Z,7.32
2022-12-27T07:33:32.688Z,7.32
2022-12-27T07:35:45.088Z,7.31
2022-12-27T07:37:50.773Z,7.27
2022-12-27T07:39:56.368Z,7.16
2022-12-27T07:42:07.894Z,7.05
2022-12-27T07:44:16.494Z,7.07
2022-12-27T07:46:24.435Z,7.05
2022-12-27T07:48:31.640Z,7.10
2022-12-27T07:50:39.889Z,7.14
2022-12-27T07:52:45.375Z,7.20
2022-12-27T07:54:50.848Z,7.27
2022-12-27T07:56:56.450Z,7.34
2022-12-27T07:59:04.827Z,7.35
2022-12-27T08:01:12.019Z,7.46
2022-12-27T08:03:18.688Z,7.50
2022-12-27T08:05:27.709Z,7.56
2022-12-27T08:07:36.658Z,7.63
2022-12-27T08:09:45.048Z,7.64
2022-12-27T08:11:50.467Z,7.73
2022-12-27T08:13:55.735Z,7.77
2022-12-27T08:16:01.530Z,7.84
2022-12-27T08:18:07.582Z,7.90
2022-12-27T08:20:17.566Z,7.94
2022-12-27T08:22:24.199Z,7.99
2022-12-27T08:24:32.542Z,8.04
2022-12-27T08:26:38.584Z,8.11
2022-12-27T08:28:44.917Z,8.18
2022-12-27T08:30:50.582Z,8.25
2022-12-27T08:32:55.981Z,8.31
2022-12-27T08:35:18.299Z,8.36
2022-12-27T08:37:26.703Z,8.39
2022-12-27T08:39:34.618Z,8.47
2022-12-27T08:41:40.067Z,8.51
2022-12-27T08:43:45.731Z,8.54
2022-12-27T08:45:51.393Z,8.57
2022-12-27T08:48:01.289Z,8.60
2022-12-27T08:50:07.496Z,8.64
2022-12-27T08:52:12.967Z,8.69
2022-12-27T08:54:18.793Z,8.73
2022-12-27T08:56:26.832Z,8.78
2022-12-27T08:58:32.153Z,8.83
2022-12-27T09:00:37.403Z,8.89
2022-12-27T09:02:43.138Z,8.95
2022-12-27T09:04:48.630Z,9.02
2022-12-27T09:06:54.558Z,9.11
2022-12-27T09:09:01.551Z,9.19
2022-12-27T09:11:16.226Z,9.27
2022-12-27T09:13:24.107Z,9.37
2022-12-27T09:15:29.435Z,9.46
2022-12-27T09:17:34.831Z,9.55
2022-12-27T09:19:40.892Z,9.62
2022-12-27T09:21:46.833Z,9.72
2022-12-27T09:23:54.213Z,9.81
2022-12-27T09:25:59.528Z,9.91
2022-12-27T09:28:04.804Z,9.98
2022-12-27T09:30:14.207Z,10.04
2022-12-27T09:32:19.764Z,10.11
2022-12-27T09:34:25.773Z,10.11
2022-12-27T09:36:33.298Z,10.24
2022-12-27T09:38:40.616Z,10.32
2022-12-27T09:40:56.701Z,10.39
2022-12-27T09:43:21.017Z,10.47
2022-12-27T09:45:40.815Z,10.61
2022-12-27T09:47:57.808Z,10.74
2022-12-27T09:50:08.932Z,10.83
2022-12-27T09:52:24.210Z,10.86
2022-12-27T09:54:38.313Z,10.87
2022-12-27T09:57:18.389Z,10.92
2022-12-27T09:59:28.581Z,10.98
2022-12-27T10:01:40.683Z,11.03
2022-12-27T10:03:47.247Z,11.06
2022-12-27T10:06:03.579Z,11.15
2022-12-27T10:08:33.426Z,11.18
2022-12-27T10:10:50.024Z,11.20
2022-12-27T10:13:16.386Z,11.27
2022-12-27T10:15:31.374Z,11.35
2022-12-27T10:17:53.681Z,11.41
2022-12-27T10:20:20.903Z,11.44
2022-12-27T10:22:36.962Z,11.46
2022-12-27T10:24:48.862Z,11.48
2022-12-27T10:26:58.284Z,11.57
2022-12-27T10:29:16.279Z,11.62
2022-12-27T10:31:25.644Z,11.63
2022-12-27T10:33:38.125Z,11.65
2022-12-27T10:35:43.403Z,11.68
2022-12-27T10:37:50.645Z,11.74
2022-12-27T10:39:56.118Z,11.77
2022-12-27T10:42:16.997Z,11.80
2022-12-27T10:44:22.422Z,11.81
2022-12-27T10:46:33.381Z,11.84
2022-12-27T10:49:11.413Z,11.83
2022-12-27T10:51:13.143Z,11.81
2022-12-27T10:54:00.682Z,11.79
2022-12-27T10:56:28.329Z,11.82
2022-12-27T10:58:42.898Z,11.83
2022-12-27T11:00:58.017Z,11.85
2022-12-27T11:03:03.481Z,11.85
2022-12-27T11:05:26.867Z,11.86
2022-12-27T11:07:35.588Z,11.92
2022-12-27T11:09:50.210Z,11.98
2022-12-27T11:12:15.054Z,12.06
2022-12-27T11:14:23.387Z,12.12
2022-12-27T11:16:35.038Z,12.16
2022-12-27T11:18:48.741Z,12.26
2022-12-27T11:21:01.234Z,12.34
2022-12-27T11:23:14.316Z,12.44
2022-12-27T11:25:19.942Z,12.50
2022-12-27T11:27:29.495Z,12.57
2022-12-27T11:29:37.454Z,12.62
2022-12-27T11:31:48.621Z,12.73
2022-12-27T11:33:57.457Z,12.78
2022-12-27T11:36:05.873Z,12.86
2022-12-27T11:38:26.888Z,12.84
2022-12-27T11:40:35.989Z,12.87
2022-12-27T11:42:48.322Z,12.90
2022-12-27T11:45:08.530Z,12.93
2022-12-27T11:47:34.735Z,13.01
2022-12-27T11:49:47.245Z,13.08
2022-12-27T11:52:43.759Z,13.13
2022-12-27T11:55:31.196Z,13.16
2022-12-27T11:58:05.754Z,13.17
2022-12-27T12:00:21.921Z,13.20
2022-12-27T12:02:44.289Z,13.20
2022-12-27T12:05:34.474Z,13.21
2022-12-27T12:08:34.572Z,13.20
2022-12-27T12:10:55.091Z,13.23
2022-12-27T12:13:43.286Z,13.27
2022-12-27T12:16:29.216Z,13.26
2022-12-27T12:19:03.214Z,13.22
2022-12-27T12:21:28.599Z,13.19
2022-12-27T12:24:09.333Z,13.22
2022-12-27T12:26:21.484Z,13.24
2022-12-27T12:29:05.348Z,13.28
2022-12-27T12:31:30.087Z,13.31
2022-12-27T12:34:06.378Z,13.33
2022-12-27T12:36:43.937Z,13.33
2022-12-27T12:39:04.624Z,13.37
2022-12-27T12:41:52.680Z,13.41
2022-12-27T12:45:02.831Z,13.41
2022-12-27T12:47:33.314Z,13.35
2022-12-27T12:50:17.609Z,13.37
2022-12-27T12:52:52.359Z,13.40
2022-12-27T12:55:33.379Z,13.44
2022-12-27T12:57:58.836Z,13.43
2022-12-27T13:00:32.774Z,13.41
2022-12-27T13:03:41.927Z,13.38
2022-12-27T13:05:56.500Z,13.35
2022-12-27T13:08:16.922Z,13.33
2022-12-27T13:11:02.750Z,13.26
2022-12-27T13:13:18.833Z,13.18
2022-12-27T13:15:42.217Z,13.10
2022-12-27T13:18:05.437Z,13.04
2022-12-27T13:20:37.996Z,12.96
2022-12-27T13:23:03.019Z,12.92
2022-12-27T13:25:28.180Z,12.85
2022-12-27T13:27:46.863Z,12.79
2022-12-27T13:30:16.887Z,12.72
2022-12-27T13:32:40.428Z,12.64
2022-12-27T13:34:56.823Z,12.48
2022-12-27T13:37:22.276Z,12.42
2022-12-27T13:39:49.628Z,12.34
2022-12-27T13:42:19.665Z,12.22
2022-12-27T13:44:50.174Z,12.12
2022-12-27T13:47:41.589Z,12.02
2022-12-27T13:50:26.377Z,11.90
2022-12-27T13:53:00.055Z,11.82
2022-12-27T13:55:46.762Z,11.76
2022-12-27T13:58:29.195Z,11.71
2022-12-27T14:00:48.528Z,11.67
2022-12-27T14:03:55.259Z,11.64
2022-12-27T14:06:33.489Z,11.58
2022-12-27T14:09:13.417Z,11.52
2022-12-27T14:11:40.504Z,11.48
2022-12-27T14:13:47.741Z,11.43
2022-12-27T14:16:28.396Z,11.38
2022-12-27T14:18:58.343Z,11.32
2022-12-27T14:21:40.711Z,11.29
2022-12-27T14:24:11.229Z,11.24
2022-12-27T14:27:14.396Z,11.20
2022-12-27T14:30:07.788Z,11.13
2022-12-27T14:33:07.034Z,11.08
2022-12-27T14:35:48.644Z,11.02
2022-12-27T14:38:46.465Z,10.98
2022-12-27T14:41:51.696Z,10.90
2022-12-27T14:44:52.422Z,10.85
2022-12-27T14:47:57.806Z,10.80
2022-12-27T14:51:32.727Z,10.74
2022-12-27T14:54:34.419Z,10.64
2022-12-27T14:56:53.865Z,10.60
2022-12-27T14:59:22.129Z,10.61
2022-12-27T15:01:52.079Z,10.52
2022-12-27T15:04:10.432Z,10.53
2022-12-27T15:06:32.869Z,10.49
2022-12-27T15:09:06.997Z,10.44
2022-12-27T15:11:48.421Z,10.36
2022-12-27T15:14:15.183Z,10.31
2022-12-27T15:16:34.164Z,10.31
2022-12-27T15:19:00.300Z,10.29
2022-12-27T15:21:26.979Z,10.23
2022-12-27T15:23:49.817Z,10.15
2022-12-27T15:26:14.605Z,10.16
2022-12-27T15:28:34.481Z,10.11
2022-12-27T15:30:53.036Z,10.06
2022-12-27T15:33:11.677Z,10.04
2022-12-27T15:35:52.631Z,9.96
2022-12-27T15:38:09.188Z,9.88
2022-12-27T15:40:45.746Z,9.83
2022-12-27T15:43:05.332Z,9.77
2022-12-27T15:45:30.551Z,9.68
2022-12-27T15:48:03.175Z,9.60
2022-12-27T15:50:42.466Z,9.50
2022-12-27T15:53:13.156Z,9.41
2022-12-27T15:55:38.062Z,9.32
2022-12-27T15:58:08.082Z,9.29
2022-12-27T16:00:34.277Z,9.24
2022-12-27T16:02:53.684Z,9.15
2022-12-27T16:05:05.561Z,9.08
2022-12-27T16:07:43.088Z,9.02
2022-12-27T16:09:48.955Z,9.00
2022-12-27T16:12:05.166Z,8.95
2022-12-27T16:14:34.673Z,8.90
2022-12-27T16:16:58.535Z,8.85
2022-12-27T16:19:20.178Z,8.83
2022-12-27T16:21:27.859Z,8.83
2022-12-27T16:23:37.908Z,8.81
2022-12-27T16:25:46.000Z,8.77
2022-12-27T16:27:59.378Z,8.73
2022-12-27T16:30:07.987Z,8.66
2022-12-27T16:32:22.759Z,8.64
2022-12-27T16:34:34.136Z,8.55
2022-12-27T16:36:46.085Z,8.56
2022-12-27T16:39:16.262Z,8.52
2022-12-27T16:41:45.854Z,8.46
2022-12-27T16:44:18.337Z,8.41
2022-12-27T16:47:00.758Z,8.36
2022-12-27T16:49:42.194Z,8.29
2022-12-27T16:52:10.902Z,8.25
2022-12-27T16:54:37.518Z,8.19
2022-12-27T16:56:48.342Z,8.17
2022-12-27T16:58:54.762Z,8.16
2022-12-27T17:01:03.076Z,8.11
2022-12-27T17:03:46.741Z,8.07
2022-12-27T17:06:29.936Z,8.04
2022-12-27T17:08:22.533Z,8.00
2022-12-27T17:10:57.346Z,7.95
2022-12-27T17:13:13.668Z,7.93
2022-12-27T17:15:19.711Z,7.91
2022-12-27T17:17:27.139Z,7.89
2022-12-27T17:19:42.033Z,7.82
2022-12-27T17:21:49.366Z,7.83
2022-12-27T17:24:42.703Z,7.80
2022-12-27T17:27:25.299Z,7.71
2022-12-27T17:30:17.890Z,7.53
2022-12-27T17:32:47.521Z,7.54
2022-12-27T17:35:07.515Z,7.59
2022-12-27T17:50:18.519Z,7.56
2022-12-27T17:52:42.320Z,7.56
2022-12-27T17:55:00.586Z,7.53
2022-12-27T17:57:20.184Z,7.50
2022-12-27T17:59:49.825Z,7.45
2022-12-27T18:01:57.876Z,7.47
2022-12-27T18:04:08.078Z,7.43
2022-12-27T18:06:21.422Z,7.43
2022-12-27T18:08:34.199Z,7.32
2022-12-27T18:10:39.962Z,7.32
2022-12-27T18:12:56.673Z,7.29
2022-12-27T18:15:07.048Z,7.29
2022-12-27T18:17:29.307Z,7.29
2022-12-27T18:19:35.899Z,7.30
2022-12-27T18:21:59.393Z,7.31
2022-12-27T18:24:05.138Z,7.22
2022-12-27T18:26:15.752Z,7.28
2022-12-27T18:28:30.480Z,7.27
2022-12-27T18:30:45.546Z,7.28
2022-12-27T18:32:51.185Z,7.30
2022-12-27T18:35:03.196Z,7.31
2022-12-27T18:37:16.374Z,7.29
2022-12-27T18:39:35.258Z,7.28
2022-12-27T18:41:56.368Z,7.30
2022-12-27T18:44:04.786Z,7.31
2022-12-27T18:46:11.409Z,7.31
2022-12-27T18:48:21.287Z,7.33
2022-12-27T18:50:30.821Z,7.33
2022-12-27T18:52:45.366Z,7.31
2022-12-27T18:54:53.250Z,7.26
2022-12-27T18:57:00.111Z,7.28
2022-12-27T18:59:09.018Z,7.25
2022-12-27T19:01:39.919Z,7.25
2022-12-27T19:03:45.534Z,7.26
2022-12-27T19:06:10.339Z,7.26
2022-12-27T19:08:24.547Z,7.23
2022-12-27T19:10:33.743Z,7.21
2022-12-27T19:12:42.274Z,7.18
2022-12-27T19:14:49.489Z,7.15
2022-12-27T19:20:25.099Z,7.11
2022-12-27T19:30:58.154Z,6.93
2022-12-27T19:33:16.849Z,6.90
2022-12-27T19:35:23.870Z,6.92
2022-12-27T19:37:31.103Z,6.93
2022-12-27T19:39:40.949Z,6.93
2022-12-27T19:41:46.552Z,6.91
2022-12-27T19:43:52.715Z,6.93
2022-12-27T19:45:58.442Z,6.92
2022-12-27T19:48:11.348Z,6.90
2022-12-27T19:50:16.885Z,6.87
2022-12-27T19:52:26.847Z,6.87
2022-12-27T19:54:33.563Z,6.87
2022-12-27T19:56:39.094Z,6.81
2022-12-27T19:58:44.750Z,6.82
2022-12-27T20:00:50.501Z,6.85
2022-12-27T20:02:56.617Z,6.83
2022-12-27T20:05:04.823Z,6.81
2022-12-27T20:07:14.427Z,6.82
2022-12-27T20:09:22.503Z,6.80
2022-12-27T20:11:29.342Z,6.79
2022-12-27T20:13:35.694Z,6.74
2022-12-27T20:15:44.309Z,6.69
2022-12-27T20:17:51.331Z,6.64
2022-12-27T20:19:56.730Z,6.54
2022-12-27T20:22:05.423Z,6.58
2022-12-27T20:24:13.995Z,6.55
2022-12-27T20:26:23.838Z,6.49
2022-12-27T20:28:29.532Z,6.48
2022-12-27T20:30:35.993Z,6.36
2022-12-27T20:32:41.769Z,6.35
2022-12-27T20:34:50.852Z,6.34
2022-12-27T20:36:58.285Z,6.35
2022-12-27T20:39:07.420Z,6.35
2022-12-27T20:41:16.446Z,6.36
2022-12-27T20:43:22.296Z,6.39
2022-12-27T20:45:28.275Z,6.37
2022-12-27T20:47:34.147Z,6.38
2022-12-27T20:49:40.235Z,6.36
2022-12-27T20:51:45.875Z,6.36
2022-12-27T20:53:57.183Z,6.34
2022-12-27T20:56:06.516Z,6.34
2022-12-27T20:58:12.068Z,6.32
2022-12-27T21:00:19.083Z,6.30
2022-12-27T21:02:24.682Z,6.26
2022-12-27T21:04:30.442Z,6.24
2022-12-27T21:06:35.888Z,6.22
2022-12-27T21:08:47.830Z,6.20
2022-12-27T21:10:54.952Z,6.16
2022-12-27T21:13:03.215Z,6.11
2022-12-27T21:15:11.008Z,6.08
2022-12-27T21:17:16.719Z,5.99
2022-12-27T21:19:22.144Z,6.04
2022-12-27T21:21:29.989Z,6.01
2022-12-27T21:23:37.019Z,5.94
2022-12-27T21:25:42.499Z,6.00
2022-12-27T21:27:48.699Z,5.97
2022-12-27T21:29:57.190Z,5.94
2022-12-27T21:32:03.386Z,5.92
2022-12-27T21:34:09.534Z,5.91
2022-12-27T21:36:24.724Z,5.90
2022-12-27T21:38:31.648Z,5.87
2022-12-27T21:40:37.397Z,5.83
2022-12-27T21:42:43.008Z,5.84
2022-12-27T21:44:48.473Z,5.82
2022-12-27T21:46:56.549Z,5.81
2022-12-27T21:49:04.998Z,5.80
2022-12-27T21:51:13.820Z,5.79
2022-12-27T21:53:21.012Z,5.77
2022-12-27T21:55:26.362Z,5.69
2022-12-27T21:57:31.758Z,5.72
2022-12-27T21:59:37.306Z,5.70
2022-12-27T22:01:50.306Z,5.67
2022-12-27T22:04:01.682Z,5.63
2022-12-27T22:06:14.092Z,5.60
2022-12-27T22:08:19.485Z,5.59
2022-12-27T22:10:24.984Z,5.58
2022-12-27T22:12:30.619Z,5.58
2022-12-27T22:14:37.182Z,5.56
2022-12-27T22:16:43.437Z,5.57
2022-12-27T22:18:50.068Z,5.56
2022-12-27T22:21:02.921Z,5.54
2022-12-27T22:23:08.688Z,5.54
2022-12-27T22:25:14.361Z,5.54
2022-12-27T22:27:20.337Z,5.53
2022-12-27T22:29:31.567Z,5.51
2022-12-27T22:31:42.989Z,5.51
2022-12-27T22:33:49.274Z,5.45
2022-12-27T22:36:04.272Z,5.48
2022-12-27T22:38:09.934Z,5.45
2022-12-27T22:40:40.742Z,5.44
2022-12-27T22:42:41.956Z,5.38
2022-12-27T22:44:47.433Z,5.38
2022-12-27T22:49:19.594Z,5.34
2022-12-27T22:51:31.311Z,5.27
2022-12-27T22:53:40.436Z,5.30
2022-12-27T22:55:49.173Z,5.29
2022-12-27T22:57:55.706Z,5.29
2022-12-27T23:00:01.620Z,5.28
2022-12-27T23:02:07.698Z,5.27
2022-12-27T23:04:16.211Z,5.18
2022-12-27T23:06:23.214Z,5.21
2022-12-27T23:08:31.384Z,5.19
2022-12-27T23:10:37.011Z,5.20
2022-12-27T23:12:42.765Z,5.19
2022-12-27T23:14:48.328Z,5.13
2022-12-27T23:16:53.993Z,5.18
2022-12-27T23:18:59.397Z,5.17
2022-12-27T23:21:21.556Z,5.16
2022-12-27T23:23:32.637Z,5.14
2022-12-27T23:25:39.157Z,5.13
2022-12-27T23:27:44.620Z,5.13
2022-12-27T23:29:49.937Z,5.10
2022-12-27T23:31:56.120Z,5.08
2022-12-27T23:34:02.390Z,5.05
2022-12-27T23:36:08.415Z,5.03
2022-12-27T23:38:13.730Z,4.99
2022-12-27T23:40:21.699Z,5.01
2022-12-27T23:42:27.244Z,5.02
2022-12-27T23:44:34.855Z,5.00
2022-12-27T23:46:40.412Z,4.98
2022-12-27T23:48:47.109Z,4.97
2022-12-27T23:50:52.489Z,4.96
2022-12-27T23:52:58.034Z,4.97
2022-12-27T23:55:03.453Z,4.97
2022-12-27T23:57:22.203Z,4.96
2022-12-27T23:59:28.729Z,4.96
